CDT,Max TemperatureF,Mean TemperatureF,Min TemperatureF,Max Dew PointF,MeanDew PointF,Min DewpointF,Max Humidity, Mean Humidity, Min Humidity, Max Sea Level PressureIn, Mean Sea Level PressureIn, Min Sea Level PressureIn, Max VisibilityMiles, Mean VisibilityMiles, Min VisibilityMiles, Max Wind SpeedMPH, Mean Wind SpeedMPH, Max Gust SpeedMPH,PrecipitationIn, CloudCover, Events, WindDirDegrees
2012-10-1,80,68,57,57,55,52,88,68,37,29.81,29.77,29.75,10,10,10,18,7,25,0.00,2,,331
2012-10-2,78,66,55,57,54,50,88,69,36,29.98,29.90,29.81,10,10,8,12,4,,0.00,1,,350
2012-10-3,80,66,53,61,55,48,94,70,39,30.08,30.02,29.97,10,9,4,9,1,,0.00,0,,158
2012-10-4,84,70,55,64,60,52,88,72,51,30.18,30.13,30.08,10,9,1,13,3,18,0.00,0,,146
2012-10-5,84,72,59,66,62,55,88,74,48,30.14,30.07,29.98,10,9,2,12,2,16,0.00,1,,198
2012-10-6,68,60,51,64,54,41,88,79,67,30.18,30.09,30.01,10,10,7,10,4,17,0.00,7,,28
2012-10-7,57,52,48,45,40,37,72,64,55,30.27,30.20,30.15,10,10,10,10,7,18,0.00,8,,19
2012-10-8,66,57,48,46,45,43,87,70,46,30.26,30.19,30.12,10,10,6,13,5,,0.00,4,,47
2012-10-9,77,62,48,64,54,43,88,76,60,30.13,30.05,29.94,10,10,10,12,5,16,0.00,5,,152
2012-10-10,84,73,62,70,65,61,94,77,54,30.16,30.09,30.03,10,9,1,10,4,,0.00,3,,128
2012-10-11,86,77,68,70,66,63,88,74,51,30.20,30.15,30.11,10,9,3,13,7,18,0.00,4,,143
2012-10-12,84,73,62,70,64,59,100,79,54,30.23,30.17,30.14,10,9,0,12,3,20,0.00,2,,138
2012-10-13,86,76,66,72,67,63,94,75,51,30.15,30.06,29.94,10,8,2,18,7,26,0.00,4,,166
2012-10-14,84,72,57,70,66,54,88,75,57,30.06,30.00,29.94,10,10,7,15,10,24,0.00,4,Thunderstorm,243
2012-10-15,80,66,51,57,52,46,94,68,30,30.11,30.05,29.99,10,10,7,10,2,,0.00,0,,47
2012-10-16,69,60,50,59,53,46,88,78,56,30.02,29.91,29.81,10,10,5,10,2,,0.00,0,,159
2012-10-17,86,72,59,70,63,55,94,79,58,29.80,29.71,29.60,10,9,1,21,8,28,0.00,4,,192
2012-10-18,78,63,48,63,47,36,88,58,22,29.99,29.90,29.75,10,10,10,12,4,17,0.00,1,,23
2012-10-19,77,58,39,48,39,36,87,60,22,30.03,29.96,29.92,10,10,9,15,3,22,0.00,0,,299
2012-10-20,82,62,42,57,47,37,87,61,30,29.98,29.92,29.85,10,10,10,15,3,20,0.00,1,,176
2012-10-21,86,74,62,70,64,57,88,73,55,30.01,29.95,29.90,10,10,10,15,7,22,0.00,4,,158
2012-10-22,84,76,68,68,65,63,88,73,51,30.06,30.01,29.98,10,10,9,15,8,20,0.00,4,,160
2012-10-23,82,73,64,66,64,61,94,77,51,30.05,30.00,29.96,10,10,2,9,6,,0.00,3,,152
2012-10-24,82,73,64,70,65,63,94,80,58,30.06,29.98,29.92,10,8,0,13,6,16,0.00,3,,148
2012-10-25,84,76,66,70,67,59,88,77,58,29.98,29.91,29.87,10,10,4,16,7,24,0.00,4,,163
2012-10-26,62,57,50,57,48,45,88,81,76,30.24,30.12,29.98,10,9,2,16,10,22,0.00,8,Thunderstorm,2
2012-10-27,60,48,37,45,36,34,87,65,39,30.27,30.19,30.12,10,10,10,15,6,21,0.00,0,,3
2012-10-28,64,48,33,37,33,28,93,65,28,30.26,30.21,30.17,10,10,10,13,3,18,0.00,0,,5
2012-10-29,66,50,33,41,34,28,93,64,30,30.31,30.23,30.16,10,10,10,8,1,,0.00,0,,9
2012-10-30,71,52,33,46,39,30,87,66,35,30.16,30.08,30.00,10,10,10,8,1,,0.00,0,,244
2012-10-31,82,62,42,61,50,39,88,74,42,30.04,30.00,29.95,10,10,8,13,2,21,0.00,0,,282